Pagrindinis puslapis
METAR-TAF:

METAR-TAF

Oro uostai :

Quakertown Airport

Quakertown, Pensilvanija, Jungtinės Amerikos Valstijos

platuma: 40-26-06N, ilguma: 075-22-54W, Aukštis: 160 m

Dabartinis oras

Ataskaita buvo paskelbta 16 minutes, ne 07:00 UTC
Vėjas 10 kt iš Pietvakarių su gūsio iki 15 kt, svyruoja nuo Pietų/Pietvakarių ir Vakarų
Temperatūra -3°C
Drėgmė 58%
Slėgis 1011 hPa
Matomumas: 16.1 km
Mažai debesys ne aukštis 3100 ft
Mažai debesys ne aukštis 3800 ft
Mažai debesys ne aukštis 7000 ft

METAR: KUKT 280700Z AUTO 23010G15KT 200V260 10SM FEW031 FEW038 FEW070 M03/M10 A2986 RMK A01

Laikas: 02:16 (07:16 UTC)


TAF: trūkstamas

Orai ataskaitas ir orų prognozės (METAR, TAF).

turimą stotys yra geltonos ir raudonos taškus žemėlapyje.

Perkelti pele per norėdami pamatyti stoties vardą.

Tada spustelėkite, norėdami matyti oro stebėjimo ir prognozės.

Norėdami pakeisti žemėlapį: spustelėkite ant žalios mygtukų su juodo kryžiaus žemyn,; žalią mygtuką su brūkšneliu, jei norite nutolinti; arba žalių rodyklių gretimoms žemėlapius.


METAR-TAF: